Time;durP1;ratioP1;P1;durP2;ratioP2;P2;SDS_P1;SDS_P2;PMS_P1;PMS_P2;Temp;Humidity;BMP_temperature;BMP_pressure;BME280_temperature;BME280_humidity;BME280_pressure;Samples;Min_cycle;Max_cycle;Signal;HPM_P1;HPM_P2
2021/12/24 00:01:42;;;;;;;72.53;37.95;;;;;;;6.15;100.00;100460.22;5030668;28;20128;-61
2021/12/24 00:04:09;;;;;;;65.65;37.78;;;;;;;6.13;100.00;100462.19;5032107;28;20556;-61
2021/12/24 00:06:35;;;;;;;60.83;35.75;;;;;;;6.22;100.00;100466.59;5030189;28;20047;-62
2021/12/24 00:09:02;;;;;;;69.20;37.47;;;;;;;6.19;100.00;100464.25;5031239;28;20087;-61
2021/12/24 00:11:27;;;;;;;67.38;36.22;;;;;;;6.12;100.00;100465.78;5031329;28;20116;-61
2021/12/24 00:13:53;;;;;;;58.55;32.63;;;;;;;6.23;100.00;100452.47;5032236;28;20449;-61
2021/12/24 00:16:23;;;;;;;55.53;34.28;;;;;;;6.31;100.00;100460.47;5031440;28;20033;-61
2021/12/24 00:18:59;;;;;;;52.60;30.42;;;;;;;6.26;100.00;100462.69;5029411;28;20060;-61
2021/12/24 00:35:40;;;;;;;50.53;32.80;;;;;;;6.37;100.00;100448.53;5030300;28;20524;-61
2021/12/24 00:38:03;;;;;;;48.70;32.40;;;;;;;6.35;100.00;100444.41;5027855;28;20041;-61
2021/12/24 00:40:39;;;;;;;54.83;33.13;;;;;;;6.30;100.00;100437.75;5030439;28;20029;-61
2021/12/24 00:43:05;;;;;;;53.65;33.50;;;;;;;6.35;100.00;100434.69;5031191;28;20120;-61
2021/12/24 00:45:34;;;;;;;50.13;32.85;;;;;;;6.40;100.00;100423.72;5030712;28;20095;-61
2021/12/24 00:48:00;;;;;;;49.00;31.48;;;;;;;6.46;100.00;100425.75;5027514;28;20463;-61
2021/12/24 00:50:29;;;;;;;50.30;33.13;;;;;;;6.43;100.00;100421.59;5030614;28;20033;-61
2021/12/24 00:53:01;;;;;;;49.88;33.25;;;;;;;6.48;100.00;100430.91;5030466;28;20048;-62
2021/12/24 00:55:29;;;;;;;49.28;31.27;;;;;;;6.46;100.00;100423.13;5028883;28;20482;-61
2021/12/24 00:57:56;;;;;;;47.47;33.03;;;;;;;6.48;100.00;100423.84;5030035;28;20104;-59
2021/12/24 01:00:26;;;;;;;46.95;31.17;;;;;;;6.51;100.00;100428.78;5027769;28;20052;-61
2021/12/24 01:02:53;;;;;;;51.35;33.65;;;;;;;6.51;100.00;100428.78;5030216;28;20036;-61
2021/12/24 01:05:20;;;;;;;48.83;33.20;;;;;;;6.57;100.00;100425.59;5030981;28;20091;-61
2021/12/24 01:07:46;;;;;;;44.38;27.65;;;;;;;6.64;100.00;100425.00;5028890;28;20033;-61
2021/12/24 01:10:14;;;;;;;50.47;32.08;;;;;;;6.61;100.00;100425.31;5029917;28;20029;-61
2021/12/24 01:12:39;;;;;;;52.15;34.65;;;;;;;6.58;100.00;100421.97;5029315;28;20022;-61
2021/12/24 01:15:06;;;;;;;52.53;35.17;;;;;;;6.59;100.00;100415.75;5030951;28;20359;-62
2021/12/24 01:20:03;;;;;;;55.92;36.65;;;;;;;6.65;100.00;100419.59;5027065;28;20029;-61
2021/12/24 01:25:25;;;;;;;59.92;35.90;;;;;;;6.71;100.00;100413.72;5029785;28;20107;-61
2021/12/24 01:28:06;;;;;;;65.65;40.03;;;;;;;6.72;100.00;100414.56;5028541;28;20407;-61
2021/12/24 01:37:52;;;;;;;62.47;41.63;;;;;;;6.88;100.00;100423.63;5028517;28;20529;-61
2021/12/24 01:39:00;;;;;;;78.82;46.70;;;;;;;6.83;100.00;100421.44;5026853;28;20086;-61
2021/12/24 01:44:10;;;;;;;75.63;45.33;;;;;;;7.03;100.00;100421.31;5030089;28;20407;-61
2021/12/24 01:46:35;;;;;;;83.22;46.88;;;;;;;6.99;100.00;100420.78;5029262;28;20029;-61
2021/12/24 01:49:02;;;;;;;87.35;49.47;;;;;;;6.99;100.00;100423.44;5027329;28;20044;-61
2021/12/24 01:51:28;;;;;;;86.25;50.85;;;;;;;6.95;100.00;100414.16;5029498;28;20033;-61
2021/12/24 01:53:53;;;;;;;86.72;51.08;;;;;;;7.02;100.00;100415.25;5027708;28;20030;-61
2021/12/24 01:56:19;;;;;;;84.63;51.25;;;;;;;7.08;100.00;100416.44;5028951;28;20032;-61
2021/12/24 01:58:45;;;;;;;86.68;49.20;;;;;;;6.99;100.00;100420.78;5028720;28;20069;-61
2021/12/24 02:01:11;;;;;;;87.90;49.88;;;;;;;7.03;100.00;100411.63;5028548;28;20109;-60
2021/12/24 02:03:36;;;;;;;90.32;50.35;;;;;;;7.05;100.00;100414.13;5029182;28;20108;-61
2021/12/24 02:06:01;;;;;;;87.07;51.75;;;;;;;7.00;100.00;100411.91;5029685;28;20045;-61
2021/12/24 02:08:26;;;;;;;86.00;51.33;;;;;;;7.07;100.00;100407.72;5028883;28;20053;-61
2021/12/24 02:10:52;;;;;;;84.55;46.28;;;;;;;7.12;100.00;100415.97;5028911;28;20459;-61
2021/12/24 02:13:17;;;;;;;91.05;51.72;;;;;;;7.09;100.00;100412.81;5029252;28;20538;-61
2021/12/24 02:16:01;;;;;;;88.50;50.00;;;;;;;7.09;100.00;100411.03;5029186;28;20051;-61
2021/12/24 02:29:30;;;;;;;90.15;50.78;;;;;;;7.19;100.00;100407.47;5031836;28;20044;-61
2021/12/24 02:31:56;;;;;;;92.70;51.10;;;;;;;7.23;100.00;100411.47;5033859;28;20029;-61
2021/12/24 02:34:21;;;;;;;81.32;45.97;;;;;;;7.27;100.00;100412.84;5027354;28;20493;-61
2021/12/24 02:36:46;;;;;;;87.65;51.85;;;;;;;7.31;100.00;100408.94;5034299;28;20034;-61
2021/12/24 02:39:12;;;;;;;86.10;50.17;;;;;;;7.28;100.00;100401.31;5032862;28;20542;-62
2021/12/24 02:41:37;;;;;;;95.50;51.97;;;;;;;7.36;100.00;100411.94;5034101;28;20026;-62
2021/12/24 02:44:03;;;;;;;90.32;53.08;;;;;;;7.31;100.00;100403.66;5034539;28;20025;-62
2021/12/24 02:46:35;;;;;;;86.40;52.80;;;;;;;7.31;100.00;100402.81;5035027;28;20463;-62
2021/12/24 02:49:08;;;;;;;101.85;55.85;;;;;;;7.26;100.00;100401.44;5034758;28;20554;-62
2021/12/24 02:54:19;;;;;;;101.50;54.80;;;;;;;7.29;100.00;100389.78;5032918;28;19979;-61
2021/12/24 02:56:49;;;;;;;101.88;55.85;;;;;;;7.39;100.00;100395.81;5034601;28;20104;-62
2021/12/24 02:59:17;;;;;;;102.78;55.85;;;;;;;7.40;100.00;100393.97;5033536;28;20075;-62
2021/12/24 03:01:45;;;;;;;102.70;54.83;;;;;;;7.42;100.00;100396.47;5031430;28;20098;-62
2021/12/24 03:04:12;;;;;;;109.88;58.25;;;;;;;7.36;100.00;100396.09;5031818;28;20087;-62
2021/12/24 03:06:44;;;;;;;106.80;56.95;;;;;;;7.39;100.00;100390.53;5031344;28;20041;-61
2021/12/24 03:09:12;;;;;;;108.18;57.97;;;;;;;7.36;100.00;100396.09;5030767;28;20057;-62
2021/12/24 03:11:38;;;;;;;108.07;57.28;;;;;;;7.34;100.00;100390.16;5029309;28;20672;-62
2021/12/24 03:14:08;;;;;;;108.82;53.83;;;;;;;7.43;100.00;100384.94;5029766;28;20025;-62
2021/12/24 03:16:35;;;;;;;115.55;60.20;;;;;;;7.33;100.00;100393.78;5029300;28;20106;-62
2021/12/24 03:19:02;;;;;;;115.60;57.88;;;;;;;7.36;100.00;100395.28;5031898;28;20029;-62
2021/12/24 03:26:28;;;;;;;115.25;56.47;;;;;;;7.41;100.00;100393.03;5031547;28;20029;-62
2021/12/24 03:28:53;;;;;;;114.35;57.65;;;;;;;7.40;100.00;100397.47;5032783;28;20030;-62
2021/12/24 03:31:18;;;;;;;108.53;55.13;;;;;;;7.51;100.00;100403.50;5031462;28;20399;-62
2021/12/24 03:33:44;;;;;;;114.55;57.60;;;;;;;7.47;100.00;100407.41;5030408;28;20156;-61
2021/12/24 03:36:09;;;;;;;97.97;52.15;;;;;;;7.62;100.00;100411.19;5031745;28;20041;-62
2021/12/24 03:38:36;;;;;;;115.50;55.85;;;;;;;7.51;100.00;100406.13;5032845;28;20059;-62
2021/12/24 03:41:02;;;;;;;110.35;56.35;;;;;;;7.54;100.00;100408.44;5029621;28;20029;-62
2021/12/24 03:43:28;;;;;;;110.35;55.72;;;;;;;7.51;100.00;100404.31;5032458;28;20057;-62
2021/12/24 03:48:24;;;;;;;101.03;52.00;;;;;;;7.60;100.00;100407.84;5031622;28;20517;-62
2021/12/24 03:55:59;;;;;;;95.50;49.58;;;;;;;7.63;100.00;100412.00;5029434;28;20064;-62
2021/12/24 03:58:25;;;;;;;97.47;48.65;;;;;;;7.54;100.00;100405.81;5030881;28;20475;-62
2021/12/24 04:00:51;;;;;;;90.18;48.05;;;;;;;7.74;100.00;100410.94;5030204;28;20402;-61
2021/12/24 04:03:17;;;;;;;86.90;46.30;;;;;;;7.69;100.00;100416.66;5031474;28;20129;-62
2021/12/24 04:05:43;;;;;;;85.97;43.88;;;;;;;7.59;100.00;100403.56;5031248;28;20461;-62
2021/12/24 04:08:08;;;;;;;75.93;43.50;;;;;;;7.60;100.00;100401.75;5030268;28;20562;-62
2021/12/24 04:10:40;;;;;;;74.05;39.42;;;;;;;7.65;100.00;100404.78;5030682;28;20497;-62
2021/12/24 04:13:09;;;;;;;67.93;40.00;;;;;;;7.65;100.00;100410.03;5031748;28;20017;-62
2021/12/24 04:15:37;;;;;;;70.32;38.85;;;;;;;7.69;100.00;100405.28;5028299;28;20026;-62
2021/12/24 04:18:12;;;;;;;68.18;37.55;;;;;;;7.69;100.00;100410.56;5031088;28;20037;-62
2021/12/24 04:26:05;;;;;;;56.50;29.15;;;;;;;7.78;100.00;100402.56;5030825;28;20345;-62
2021/12/24 04:28:30;;;;;;;64.38;32.22;;;;;;;7.70;100.00;100401.66;5032144;28;20033;-62
2021/12/24 04:30:55;;;;;;;55.30;30.67;;;;;;;7.74;100.00;100403.03;5032257;28;20386;-62
2021/12/24 04:33:31;;;;;;;61.08;30.17;;;;;;;7.64;100.00;100403.09;5031712;28;20034;-62
2021/12/24 04:38:39;;;;;;;48.92;26.27;;;;;;;7.68;100.00;100407.09;5032380;28;20045;-62
2021/12/24 04:52:10;;;;;;;37.67;19.95;;;;;;;7.75;100.00;100405.47;5026346;28;20556;-62
2021/12/24 05:03:11;;;;;;;41.08;22.02;;;;;;;7.72;100.00;100405.81;5024944;28;20033;-62
2021/12/24 05:05:50;;;;;;;45.13;21.38;;;;;;;7.72;100.00;100412.88;5024888;28;20060;-62
2021/12/24 05:08:22;;;;;;;39.20;21.52;;;;;;;7.60;100.00;100402.56;5022837;28;20068;-62
2021/12/24 05:10:49;;;;;;;38.88;22.23;;;;;;;7.64;100.00;100405.72;5030126;28;20029;-62
2021/12/24 05:13:16;;;;;;;42.40;21.52;;;;;;;7.64;100.00;100409.22;5028624;28;20425;-62
2021/12/24 05:15:45;;;;;;;39.47;22.83;;;;;;;7.65;100.00;100413.50;5031111;28;20075;-62
2021/12/24 05:18:28;;;;;;;47.85;22.63;;;;;;;7.63;100.00;100410.19;5028639;28;20017;-62
2021/12/24 05:23:38;;;;;;;46.03;21.50;;;;;;;7.66;100.00;100422.25;5029911;28;20136;-62
2021/12/24 05:26:03;;;;;;;38.10;20.75;;;;;;;7.63;100.00;100420.75;5029904;28;20124;-62
2021/12/24 05:28:29;;;;;;;39.70;20.98;;;;;;;7.61;100.00;100417.41;5028159;28;20079;-62
2021/12/24 05:30:54;;;;;;;38.33;20.23;;;;;;;7.66;100.00;100419.63;5028210;28;20406;-61
2021/12/24 05:33:19;;;;;;;40.42;19.98;;;;;;;7.65;100.00;100433.78;5027997;28;20513;-62
2021/12/24 05:35:45;;;;;;;41.65;19.70;;;;;;;7.63;100.00;100426.03;5030505;28;20035;-62
2021/12/24 05:38:13;;;;;;;36.97;19.08;;;;;;;7.69;100.00;100436.97;5029800;28;20035;-62
2021/12/24 05:40:39;;;;;;;37.08;18.55;;;;;;;7.72;100.00;100426.09;5028014;28;20079;-62
2021/12/24 05:43:04;;;;;;;38.50;19.70;;;;;;;7.71;100.00;100424.44;5028729;28;20036;-62
2021/12/24 05:45:30;;;;;;;40.92;18.90;;;;;;;7.64;100.00;100430.31;5028815;28;20041;-62
2021/12/24 05:47:55;;;;;;;35.15;18.77;;;;;;;7.64;100.00;100437.41;5027921;28;20125;-62
2021/12/24 05:50:20;;;;;;;38.05;18.13;;;;;;;7.73;100.00;100438.28;5028862;28;20036;-62
2021/12/24 05:52:46;;;;;;;36.55;17.48;;;;;;;7.66;100.00;100444.19;5027103;28;20041;-62
2021/12/24 05:55:11;;;;;;;39.40;18.83;;;;;;;7.68;100.00;100430.84;5027330;28;20025;-62
2021/12/24 05:57:37;;;;;;;34.83;17.20;;;;;;;7.66;100.00;100438.91;5027998;28;20526;-62
2021/12/24 06:00:08;;;;;;;40.58;18.95;;;;;;;7.60;100.00;100431.59;5029318;28;20083;-62
2021/12/24 06:02:33;;;;;;;42.42;18.52;;;;;;;7.56;100.00;100437.34;5027244;28;20048;-62
2021/12/24 06:04:58;;;;;;;40.25;17.08;;;;;;;7.56;100.00;100443.44;5029408;28;20116;-63
2021/12/24 06:07:24;;;;;;;34.20;15.02;;;;;;;7.69;100.00;100447.50;5027384;28;20380;-63
2021/12/24 06:09:49;;;;;;;38.33;15.35;;;;;;;7.62;100.00;100437.56;5026229;28;20045;-59
2021/12/24 06:12:15;;;;;;;33.90;16.33;;;;;;;7.59;100.00;100440.50;5028762;28;20061;-59
2021/12/24 06:14:41;;;;;;;38.35;16.13;;;;;;;7.53;100.00;100430.53;5026321;28;20129;-59
2021/12/24 06:17:14;;;;;;;32.38;14.88;;;;;;;7.66;100.00;100438.91;5023107;28;20049;-59
2021/12/24 06:19:40;;;;;;;36.30;15.05;;;;;;;7.61;100.00;100435.88;5018827;28;20075;-59
2021/12/24 06:22:05;;;;;;;37.60;15.98;;;;;;;7.62;100.00;100436.72;5023940;28;20053;-58
2021/12/24 06:24:30;;;;;;;32.00;14.55;;;;;;;7.58;100.00;100438.84;5023935;28;20029;-59
2021/12/24 06:26:56;;;;;;;35.25;15.10;;;;;;;7.54;100.00;100440.13;5023060;28;20041;-59
2021/12/24 06:29:21;;;;;;;32.88;14.85;;;;;;;7.59;100.00;100437.84;5018670;28;20463;-59
2021/12/24 06:31:47;;;;;;;34.50;14.32;;;;;;;7.61;100.00;100441.16;5020748;28;20048;-59
2021/12/24 06:34:12;;;;;;;36.45;14.38;;;;;;;7.57;100.00;100434.56;5025517;28;20076;-63
2021/12/24 06:36:41;;;;;;;30.67;14.32;;;;;;;7.60;100.00;100436.06;5021308;28;20041;-63
2021/12/24 06:39:07;;;;;;;36.20;14.45;;;;;;;7.57;100.00;100425.78;5028059;28;20461;-63
2021/12/24 06:41:33;;;;;;;28.65;12.65;;;;;;;7.61;100.00;100424.53;5020688;28;20045;-63
2021/12/24 06:43:58;;;;;;;28.60;13.32;;;;;;;7.61;100.00;100435.88;5027791;28;20028;-63
2021/12/24 06:46:24;;;;;;;27.83;12.85;;;;;;;7.69;98.97;100431.69;5020800;28;20073;-63
2021/12/24 06:48:55;;;;;;;31.90;13.68;;;;;;;7.66;99.39;100438.09;5024022;28;20041;-63
2021/12/24 06:51:21;;;;;;;29.42;13.32;;;;;;;7.69;99.17;100442.25;5023101;28;20028;-63
2021/12/24 06:53:46;;;;;;;35.55;14.10;;;;;;;7.61;100.00;100446.44;5019411;28;20132;-63
2021/12/24 06:56:12;;;;;;;32.38;13.63;;;;;;;7.58;100.00;100445.91;5021233;28;20065;-63
2021/12/24 06:58:37;;;;;;;29.17;12.65;;;;;;;7.66;99.53;100443.38;5018148;28;20040;-63
2021/12/24 07:01:03;;;;;;;33.05;15.02;;;;;;;7.61;99.83;100441.16;5022900;28;20076;-62
2021/12/24 07:03:28;;;;;;;31.65;14.10;;;;;;;7.62;99.59;100437.56;5025271;28;20516;-62
2021/12/24 07:05:54;;;;;;;30.23;13.57;;;;;;;7.58;100.00;100445.91;5026420;28;20037;-63
2021/12/24 07:08:19;;;;;;;31.55;14.35;;;;;;;7.62;99.57;100442.84;5028268;28;20129;-62
2021/12/24 07:10:44;;;;;;;30.98;14.27;;;;;;;7.63;99.27;100439.22;5029020;28;20017;-63
2021/12/24 07:13:10;;;;;;;34.22;15.00;;;;;;;7.63;99.58;100439.22;5027913;28;20080;-63
2021/12/24 07:15:35;;;;;;;33.55;15.20;;;;;;;7.65;99.47;100425.88;5032051;28;20032;-62
2021/12/24 07:18:00;;;;;;;32.28;14.02;;;;;;;7.70;98.81;100422.78;5030142;28;20446;-64
2021/12/24 07:20:26;;;;;;;35.03;15.93;;;;;;;7.63;99.22;100433.09;5032898;28;20029;-63
2021/12/24 07:22:51;;;;;;;34.28;15.18;;;;;;;7.74;97.63;100430.22;5032576;28;20560;-63
2021/12/24 07:25:16;;;;;;;37.38;16.75;;;;;;;7.78;97.16;100430.75;5032190;28;20033;-64
2021/12/24 07:27:41;;;;;;;33.83;16.20;;;;;;;7.76;97.55;100438.00;5032383;28;20048;-62
2021/12/24 07:30:11;;;;;;;35.30;15.55;;;;;;;7.70;97.69;100446.53;5033652;28;20475;-63
2021/12/24 07:32:38;;;;;;;32.63;16.67;;;;;;;7.70;97.89;100439.41;5029831;28;20080;-63
2021/12/24 07:35:04;;;;;;;37.30;17.17;;;;;;;7.65;98.48;100442.53;5032194;28;20061;-63
2021/12/24 07:37:29;;;;;;;34.90;14.65;;;;;;;7.66;98.74;100432.81;5033594;28;20072;-63
2021/12/24 07:39:54;;;;;;;41.58;18.65;;;;;;;7.66;98.48;100449.47;5032844;28;20376;-63
2021/12/24 07:42:19;;;;;;;37.38;19.10;;;;;;;7.69;98.31;100447.50;5034445;28;20033;-63
2021/12/24 07:44:45;;;;;;;40.75;19.45;;;;;;;7.64;99.02;100448.78;5033025;28;20474;-62
2021/12/24 07:47:17;;;;;;;39.53;18.63;;;;;;;7.64;98.60;100456.72;5040053;28;20253;-63
2021/12/24 07:49:44;;;;;;;45.63;20.20;;;;;;;7.62;98.90;100457.84;5026185;28;20063;-63
2021/12/24 07:52:09;;;;;;;41.45;18.73;;;;;;;7.60;99.22;100454.53;5032851;28;20075;-63
2021/12/24 07:54:42;;;;;;;37.30;19.17;;;;;;;7.59;99.34;100447.59;5034495;28;20474;-63
2021/12/24 07:57:09;;;;;;;42.35;20.58;;;;;;;7.54;99.32;100445.41;5031420;28;20030;-63
2021/12/24 07:59:37;;;;;;;40.40;19.58;;;;;;;7.51;99.52;100435.16;5032831;28;20067;-63
2021/12/24 08:02:03;;;;;;;36.40;17.10;;;;;;;7.63;98.37;100444.50;5034196;28;20041;-63
2021/12/24 08:04:29;;;;;;;36.85;18.25;;;;;;;7.60;98.83;100443.97;5035225;28;20029;-63
2021/12/24 08:06:54;;;;;;;41.67;19.23;;;;;;;7.52;99.13;100434.16;5032274;28;20025;-63
2021/12/24 08:09:19;;;;;;;42.63;19.00;;;;;;;7.55;98.42;100431.22;5033867;28;20517;-63
2021/12/24 08:11:45;;;;;;;44.47;19.00;;;;;;;7.57;98.02;100429.28;5032834;28;20071;-63
2021/12/24 08:14:10;;;;;;;38.85;18.50;;;;;;;7.54;98.27;100434.84;5025087;28;20650;-63
2021/12/24 08:16:36;;;;;;;34.88;17.67;;;;;;;7.46;99.01;100437.41;5032839;28;20116;-63
2021/12/24 08:19:02;;;;;;;33.28;18.48;;;;;;;7.40;98.84;100439.66;5032338;28;20057;-63
2021/12/24 08:21:28;;;;;;;44.22;18.20;;;;;;;7.48;98.20;100435.44;5032022;28;20033;-62
2021/12/24 08:23:53;;;;;;;38.50;18.48;;;;;;;7.41;98.45;100440.50;5035682;28;20033;-63
2021/12/24 08:26:21;;;;;;;37.70;17.95;;;;;;;7.38;98.79;100446.91;5034183;28;20658;-63
2021/12/24 08:28:47;;;;;;;38.00;18.50;;;;;;;7.37;99.20;100445.25;5032291;28;20025;-63
2021/12/24 08:31:13;;;;;;;38.78;17.50;;;;;;;7.38;99.02;100446.91;5027568;28;20541;-63
2021/12/24 08:33:39;;;;;;;39.80;17.58;;;;;;;7.38;98.95;100441.66;5031763;28;20048;-63
2021/12/24 08:36:06;;;;;;;39.05;17.35;;;;;;;7.45;98.64;100435.75;5032309;28;20108;-63
2021/12/24 08:38:31;;;;;;;38.30;18.02;;;;;;;7.38;99.05;100431.09;5032109;28;20044;-63
2021/12/24 08:40:58;;;;;;;36.50;16.20;;;;;;;7.57;97.17;100429.28;5030370;28;20025;-62
2021/12/24 08:43:24;;;;;;;38.67;17.70;;;;;;;7.46;98.37;100434.78;5031165;28;20530;-63
2021/12/24 08:45:50;;;;;;;40.42;17.85;;;;;;;7.42;98.95;100428.97;5031917;28;20060;-63
2021/12/24 08:48:15;;;;;;;36.17;17.75;;;;;;;7.41;99.48;100429.97;5023846;28;20117;-63
2021/12/24 08:50:40;;;;;;;37.33;16.83;;;;;;;7.46;98.82;100427.69;5029033;28;20049;-63
2021/12/24 08:53:07;;;;;;;36.60;16.90;;;;;;;7.47;98.73;100433.78;5031394;28;20512;-63
2021/12/24 08:55:33;;;;;;;39.00;17.08;;;;;;;7.53;98.14;100431.38;5033268;28;20036;-63
2021/12/24 08:57:58;;;;;;;40.13;18.25;;;;;;;7.47;98.90;100428.50;5028139;28;20029;-63
2021/12/24 09:00:24;;;;;;;35.85;17.55;;;;;;;7.56;98.47;100432.91;5025260;28;20030;-61
2021/12/24 09:02:49;;;;;;;43.00;18.92;;;;;;;7.51;99.02;100424.59;5031410;28;20479;-63
2021/12/24 09:05:15;;;;;;;38.75;19.10;;;;;;;7.52;98.91;100431.53;5026238;28;20558;-63
2021/12/24 09:07:41;;;;;;;42.03;19.02;;;;;;;7.63;97.84;100438.38;5029300;28;20481;-63
2021/12/24 09:10:09;;;;;;;41.55;19.65;;;;;;;7.53;98.92;100433.19;5031652;28;20045;-63
2021/12/24 09:12:35;;;;;;;39.75;19.10;;;;;;;7.54;99.32;100429.56;5030171;28;20029;-63
2021/12/24 09:15:00;;;;;;;40.88;19.80;;;;;;;7.54;99.20;100435.69;5030499;28;20083;-63
2021/12/24 09:17:27;;;;;;;42.88;20.02;;;;;;;7.63;98.15;100433.09;5029776;28;20556;-63
2021/12/24 09:19:54;;;;;;;40.33;20.55;;;;;;;7.60;98.67;100417.59;5028670;28;20220;-63
2021/12/24 09:22:23;;;;;;;43.80;21.30;;;;;;;7.56;99.33;100419.72;5028494;28;20061;-63
2021/12/24 09:24:51;;;;;;;44.10;20.35;;;;;;;7.66;98.49;100420.44;5031481;28;20551;-63
2021/12/24 09:27:16;;;;;;;49.35;22.27;;;;;;;7.65;98.41;100424.06;5030121;28;20030;-62
2021/12/24 09:29:42;;;;;;;46.33;20.92;;;;;;;7.73;97.69;100427.72;5011190;28;20261;-63
2021/12/24 09:32:08;;;;;;;43.60;19.65;;;;;;;7.71;97.78;100424.44;5009714;28;20038;-62
2021/12/24 09:34:34;;;;;;;44.60;20.27;;;;;;;7.78;97.23;100421.03;5026561;28;20036;-57
2021/12/24 09:36:59;;;;;;;42.95;20.75;;;;;;;7.73;98.08;100430.38;5030684;28;20029;-63
2021/12/24 09:39:25;;;;;;;45.40;20.08;;;;;;;7.70;98.42;100433.34;5029843;28;20033;-63
2021/12/24 09:41:50;;;;;;;45.92;19.52;;;;;;;7.71;97.95;100432.34;5029898;28;20033;-63
2021/12/24 09:44:15;;;;;;;41.08;18.45;;;;;;;7.67;98.16;100430.03;5029863;28;20147;-62
2021/12/24 09:46:43;;;;;;;46.63;19.58;;;;;;;7.74;97.53;100438.16;5030352;28;20082;-63
2021/12/24 09:49:09;;;;;;;41.63;18.15;;;;;;;7.71;97.88;100424.44;5030555;28;20030;-63
2021/12/24 09:51:42;;;;;;;41.38;19.02;;;;;;;7.74;97.96;100429.41;5022380;28;20026;-63
2021/12/24 09:54:18;;;;;;;37.80;18.30;;;;;;;7.88;96.43;100420.94;5027172;28;20037;-63
2021/12/24 09:56:45;;;;;;;45.60;18.83;;;;;;;7.83;97.03;100427.66;5028042;28;20021;-62
2021/12/24 09:59:11;;;;;;;41.65;18.40;;;;;;;7.89;96.59;100427.06;5031293;28;20037;-63
2021/12/24 10:01:51;;;;;;;39.97;18.67;;;;;;;7.89;96.55;100422.59;5028927;28;20424;-63
2021/12/24 10:04:19;;;;;;;43.55;19.00;;;;;;;7.78;96.86;100409.63;5029389;28;20731;-63
2021/12/24 10:06:55;;;;;;;44.72;20.15;;;;;;;7.80;97.27;100423.53;5027807;28;20032;-63
2021/12/24 10:09:27;;;;;;;44.60;20.80;;;;;;;7.72;98.44;100431.34;5029855;28;20092;-63
2021/12/24 10:11:57;;;;;;;47.42;21.50;;;;;;;7.81;97.45;100418.06;5027077;28;20486;-62
2021/12/24 10:14:32;;;;;;;45.53;21.27;;;;;;;7.87;97.59;100424.56;5027250;28;20065;-63
2021/12/24 10:16:57;;;;;;;53.38;23.90;;;;;;;7.95;96.12;100421.16;5027099;28;20029;-63
2021/12/24 10:19:23;;;;;;;47.90;23.63;;;;;;;7.86;97.26;100417.63;5029940;28;20079;-63
2021/12/24 10:21:59;;;;;;;50.92;24.17;;;;;;;7.79;97.70;100420.03;5028760;28;20029;-63
2021/12/24 10:24:26;;;;;;;50.40;24.35;;;;;;;7.79;97.93;100421.84;5030553;28;20385;-62
2021/12/24 10:26:54;;;;;;;48.25;23.85;;;;;;;7.83;98.00;100410.00;5030181;28;20030;-63
2021/12/24 10:29:38;;;;;;;53.00;23.52;;;;;;;7.97;97.55;100423.63;5029431;28;20406;-63
2021/12/24 10:32:15;;;;;;;53.65;23.88;;;;;;;7.94;97.25;100415.03;5027767;28;20030;-63
2021/12/24 10:34:42;;;;;;;52.00;23.55;;;;;;;7.91;97.14;100415.31;5027072;28;20034;-63
2021/12/24 10:37:18;;;;;;;50.00;22.73;;;;;;;7.98;96.71;100414.75;5028721;28;20100;-63
2021/12/24 10:39:54;;;;;;;46.85;22.88;;;;;;;7.99;97.43;100411.13;5027548;28;20052;-63
2021/12/24 10:42:28;;;;;;;44.97;21.10;;;;;;;8.13;96.49;100402.59;5027897;28;20425;-63
2021/12/24 10:44:54;;;;;;;49.50;22.48;;;;;;;8.02;96.23;100411.63;5026890;28;20088;-63
2021/12/24 10:47:29;;;;;;;46.08;21.15;;;;;;;8.04;96.31;100400.91;5028685;28;20040;-63
2021/12/24 10:53:00;;;;;;;47.25;21.88;;;;;;;8.11;96.08;100404.59;5031810;28;20065;-63
2021/12/24 10:55:35;;;;;;;43.25;23.80;;;;;;;8.08;96.08;100394.31;5029568;28;20026;-62
2021/12/24 10:58:01;;;;;;;48.17;23.13;;;;;;;8.12;95.95;100395.66;5031851;28;20025;-63
2021/12/24 11:00:38;;;;;;;52.28;26.50;;;;;;;8.11;96.42;100398.47;5030346;28;20477;-63
2021/12/24 11:03:17;;;;;;;57.35;27.05;;;;;;;8.09;96.77;100388.03;5029376;28;20547;-62
2021/12/24 11:05:45;;;;;;;57.20;30.50;;;;;;;8.04;96.58;100388.53;5030489;28;20056;-63
2021/12/24 11:08:17;;;;;;;61.10;30.27;;;;;;;8.15;96.21;100389.25;5031739;28;20045;-63
2021/12/24 11:10:46;;;;;;;69.40;35.17;;;;;;;8.06;97.37;100393.66;5027463;28;20095;-63
2021/12/24 11:13:20;;;;;;;68.72;34.97;;;;;;;8.13;96.64;100388.56;5030960;28;20026;-63
2021/12/24 11:15:50;;;;;;;59.83;34.92;;;;;;;8.17;96.25;100393.41;5026699;28;20513;-61
2021/12/24 11:18:19;;;;;;;61.20;33.30;;;;;;;8.15;96.18;100391.91;5031498;28;20033;-61
2021/12/24 11:20:50;;;;;;;71.43;35.08;;;;;;;8.22;96.00;100395.56;5031776;28;20060;-61
2021/12/24 11:23:18;;;;;;;72.55;37.10;;;;;;;8.11;96.76;100391.38;5037243;28;20025;-61
2021/12/24 11:25:50;;;;;;;75.28;37.92;;;;;;;8.14;97.71;100393.69;5027065;28;20120;-61
2021/12/24 11:28:17;;;;;;;73.35;39.35;;;;;;;8.14;96.43;100388.41;5024770;28;20036;-61
2021/12/24 11:30:45;;;;;;;74.90;39.50;;;;;;;8.08;97.78;100395.16;5026876;28;20026;-63
2021/12/24 11:33:16;;;;;;;78.85;39.30;;;;;;;8.19;96.76;100399.34;5024947;28;20025;-61
2021/12/24 11:35:43;;;;;;;84.22;39.03;;;;;;;8.13;96.38;100391.19;5020244;28;20505;-61
2021/12/24 11:38:13;;;;;;;73.95;39.42;;;;;;;8.14;96.74;100392.88;5023726;28;20690;-61
2021/12/24 11:40:39;;;;;;;68.30;36.83;;;;;;;8.16;96.80;100402.31;5025841;28;20033;-64
2021/12/24 11:43:05;;;;;;;69.00;37.33;;;;;;;8.15;96.84;100392.69;5029902;28;20041;-63
2021/12/24 11:45:32;;;;;;;63.03;37.63;;;;;;;8.18;96.54;100404.78;5032071;28;20060;-62
2021/12/24 11:47:58;;;;;;;73.25;38.53;;;;;;;8.13;96.75;100402.59;5034244;28;20033;-63
2021/12/24 11:50:25;;;;;;;76.90;38.10;;;;;;;8.09;97.05;100395.97;5032212;28;20037;-63
2021/12/24 11:52:56;;;;;;;70.72;36.65;;;;;;;8.12;97.97;100394.84;5031149;28;20067;-63
2021/12/24 11:55:23;;;;;;;67.88;35.90;;;;;;;8.13;97.55;100389.41;5031909;28;20120;-63
2021/12/24 11:57:59;;;;;;;67.63;35.67;;;;;;;8.14;96.40;100388.41;5032655;28;20022;-63
2021/12/24 12:00:35;;;;;;;61.70;34.85;;;;;;;8.24;95.61;100383.00;5028961;28;20568;-63
2021/12/24 12:03:00;;;;;;;64.38;35.88;;;;;;;8.18;96.23;100389.75;5031080;28;20082;-63
2021/12/24 12:05:35;;;;;;;67.90;36.17;;;;;;;8.19;96.80;100387.97;5032290;28;20124;-63
2021/12/24 12:08:24;;;;;;;66.78;35.90;;;;;;;8.35;96.56;100387.22;5031200;28;20108;-63
2021/12/24 12:11:19;;;;;;;66.93;35.13;;;;;;;8.23;97.35;100385.84;5023249;28;20116;-63
2021/12/24 12:13:44;;;;;;;60.90;33.58;;;;;;;8.20;96.61;100385.13;5029025;28;20087;-63
2021/12/24 12:16:12;;;;;;;63.15;34.05;;;;;;;8.20;96.45;100387.78;5030487;28;20037;-63
2021/12/24 12:18:48;;;;;;;60.47;34.10;;;;;;;8.19;97.22;100388.78;5030907;28;20125;-63
2021/12/24 12:21:34;;;;;;;58.92;33.25;;;;;;;8.26;96.95;100385.50;5032205;28;20057;-63
2021/12/24 12:26:49;;;;;;;60.92;29.77;;;;;;;8.32;96.42;100384.88;5030186;28;20260;-63
2021/12/24 12:29:17;;;;;;;51.13;27.13;;;;;;;8.24;96.46;100377.72;5025553;28;20069;-63
2021/12/24 12:31:43;;;;;;;56.50;29.35;;;;;;;8.21;96.75;100378.88;5029334;28;20029;-63
2021/12/24 12:34:36;;;;;;;55.83;29.85;;;;;;;8.24;97.72;100382.19;5032126;28;20038;-63
2021/12/24 12:37:21;;;;;;;55.50;29.92;;;;;;;8.25;97.18;100379.41;5030682;28;20079;-63
2021/12/24 12:39:52;;;;;;;56.30;28.50;;;;;;;8.15;97.55;100368.94;5027981;28;20532;-63
2021/12/24 12:42:19;;;;;;;62.55;30.58;;;;;;;8.16;98.55;100375.91;5027813;28;20053;-63
2021/12/24 12:44:51;;;;;;;60.78;31.85;;;;;;;8.13;98.88;100380.63;5031061;28;20029;-63
2021/12/24 12:47:23;;;;;;;51.53;31.10;;;;;;;8.13;98.44;100376.19;5028333;28;20057;-60